Time;durP1;ratioP1;P1;durP2;ratioP2;P2;SDS_P1;SDS_P2;PMS_P1;PMS_P2;Temp;Humidity;BMP_temperature;BMP_pressure;BME280_temperature;BME280_humidity;BME280_pressure;Samples;Min_cycle;Max_cycle;Signal;HPM_P1;HPM_P2
2023/07/10 00:00:52;;;;;;;13.43;3.20;;;;;;;;;;5082283;28;20121;-73
2023/07/10 00:03:21;;;;;;;11.70;3.38;;;;;;;;;;5058190;28;20639;-64
2023/07/10 00:05:49;;;;;;;13.00;3.75;;;;;;;;;;5068081;28;20109;-64
2023/07/10 00:08:17;;;;;;;12.07;3.58;;;;;;;;;;5067811;28;20075;-64
2023/07/10 00:10:46;;;;;;;5.95;3.10;;;;;;;;;;5067893;28;20131;-65
2023/07/10 00:13:14;;;;;;;10.23;3.72;;;;;;;;;;5072347;28;20048;-63
2023/07/10 00:15:42;;;;;;;7.00;3.20;;;;;;;;;;5059221;28;20181;-74
2023/07/10 00:18:15;;;;;;;5.32;2.97;;;;;;;;;;5060912;28;20091;-68
2023/07/10 00:20:45;;;;;;;7.10;3.15;;;;;;;;;;5067970;28;20452;-76
2023/07/10 00:23:13;;;;;;;5.70;3.13;;;;;;;;;;5056953;28;20494;-61
2023/07/10 00:25:42;;;;;;;9.15;3.70;;;;;;;;;;5053381;28;20103;-60
2023/07/10 00:28:14;;;;;;;9.25;4.13;;;;;;;;;;5047014;28;20079;-60
2023/07/10 00:30:45;;;;;;;10.63;3.63;;;;;;;;;;5065061;28;20781;-63
2023/07/10 00:33:15;;;;;;;5.88;2.60;;;;;;;;;;5066180;28;20493;-63
2023/07/10 00:35:44;;;;;;;11.20;3.20;;;;;;;;;;5062820;28;20490;-60
2023/07/10 00:38:17;;;;;;;6.72;3.50;;;;;;;;;;5065034;28;20106;-69
2023/07/10 00:40:46;;;;;;;6.50;2.95;;;;;;;;;;5046136;28;20431;-60
2023/07/10 00:43:24;;;;;;;5.65;2.85;;;;;;;;;;5065294;28;20248;-70
2023/07/10 00:45:53;;;;;;;5.97;3.08;;;;;;;;;;5066383;28;20085;-59
2023/07/10 00:48:28;;;;;;;7.57;3.30;;;;;;;;;;5069309;28;20457;-74
2023/07/10 00:50:58;;;;;;;4.38;2.70;;;;;;;;;;5057263;28;20139;-60
2023/07/10 00:53:29;;;;;;;7.65;3.47;;;;;;;;;;5065985;28;20054;-63
2023/07/10 00:56:00;;;;;;;5.80;3.33;;;;;;;;;;5059553;28;20505;-62
2023/07/10 00:58:31;;;;;;;7.65;3.63;;;;;;;;;;5065965;28;20048;-59
2023/07/10 01:01:00;;;;;;;6.72;3.25;;;;;;;;;;5067877;28;20072;-66
2023/07/10 01:03:31;;;;;;;9.25;3.08;;;;;;;;;;5078782;22;20090;-67
2023/07/10 01:06:01;;;;;;;6.97;3.42;;;;;;;;;;5056692;28;20059;-65
2023/07/10 01:08:29;;;;;;;7.22;3.20;;;;;;;;;;5061813;28;20732;-63
2023/07/10 01:10:58;;;;;;;6.70;3.50;;;;;;;;;;5060916;28;20102;-64
2023/07/10 01:13:26;;;;;;;6.80;3.00;;;;;;;;;;5058796;28;20441;-64
2023/07/10 01:15:54;;;;;;;6.68;3.53;;;;;;;;;;5060187;28;20512;-64
2023/07/10 01:18:24;;;;;;;6.68;2.80;;;;;;;;;;5060914;28;20594;-64
2023/07/10 01:21:01;;;;;;;6.32;2.92;;;;;;;;;;5055098;28;20053;-63
2023/07/10 01:23:29;;;;;;;6.35;3.28;;;;;;;;;;5060218;28;20072;-64
2023/07/10 01:25:59;;;;;;;7.28;2.78;;;;;;;;;;5059638;28;20118;-64
2023/07/10 01:28:29;;;;;;;7.72;3.63;;;;;;;;;;5057756;28;20127;-64
2023/07/10 01:30:58;;;;;;;6.55;3.03;;;;;;;;;;5057368;28;20517;-64
2023/07/10 01:33:28;;;;;;;7.97;3.03;;;;;;;;;;5055245;28;20059;-64
2023/07/10 01:35:57;;;;;;;7.68;3.63;;;;;;;;;;5060082;28;20049;-64
2023/07/10 01:38:31;;;;;;;5.68;3.30;;;;;;;;;;5055315;28;20485;-64
2023/07/10 01:41:04;;;;;;;5.32;2.67;;;;;;;;;;5057401;28;20420;-64
2023/07/10 01:43:32;;;;;;;7.20;3.13;;;;;;;;;;5057471;28;20139;-64
2023/07/10 01:46:00;;;;;;;7.70;3.58;;;;;;;;;;5058286;28;20135;-65
2023/07/10 01:48:29;;;;;;;5.25;2.85;;;;;;;;;;5058760;28;20051;-64
2023/07/10 01:50:58;;;;;;;5.38;3.17;;;;;;;;;;5058390;28;20493;-64
2023/07/10 01:53:26;;;;;;;7.50;3.15;;;;;;;;;;5059806;28;20106;-65
2023/07/10 01:55:56;;;;;;;4.72;2.83;;;;;;;;;;5058443;28;20056;-64
2023/07/10 01:58:24;;;;;;;10.18;2.95;;;;;;;;;;5057504;28;20517;-64
2023/07/10 02:00:53;;;;;;;8.38;3.10;;;;;;;;;;5058248;28;20071;-64
2023/07/10 02:03:21;;;;;;;10.10;3.65;;;;;;;;;;5058659;28;20052;-64
2023/07/10 02:05:49;;;;;;;5.80;3.00;;;;;;;;;;5054242;28;20086;-64
2023/07/10 02:08:18;;;;;;;5.05;3.35;;;;;;;;;;5057194;28;20044;-64
2023/07/10 02:10:46;;;;;;;6.80;2.92;;;;;;;;;;5054680;28;20117;-64
2023/07/10 02:13:16;;;;;;;6.63;3.15;;;;;;;;;;5056581;28;20472;-63
2023/07/10 02:15:44;;;;;;;6.13;3.08;;;;;;;;;;5056380;28;20173;-64
2023/07/10 02:18:13;;;;;;;5.05;2.85;;;;;;;;;;5059710;28;20485;-64
2023/07/10 02:20:42;;;;;;;6.38;2.80;;;;;;;;;;5057397;28;20140;-64
2023/07/10 02:23:10;;;;;;;8.95;3.28;;;;;;;;;;5058081;28;20138;-65
2023/07/10 02:25:39;;;;;;;6.35;2.72;;;;;;;;;;5058896;28;20051;-65
2023/07/10 02:28:07;;;;;;;5.22;2.75;;;;;;;;;;5056080;28;20074;-65
2023/07/10 02:30:39;;;;;;;6.47;3.25;;;;;;;;;;5059148;28;20124;-65
2023/07/10 02:33:08;;;;;;;5.55;3.13;;;;;;;;;;5057764;28;20044;-65
2023/07/10 02:35:36;;;;;;;6.22;2.97;;;;;;;;;;5058576;28;20068;-64
2023/07/10 02:38:04;;;;;;;6.15;2.80;;;;;;;;;;5055144;28;20541;-65
2023/07/10 02:40:33;;;;;;;4.38;2.67;;;;;;;;;;5054427;28;20440;-65
2023/07/10 02:43:01;;;;;;;12.18;3.40;;;;;;;;;;5057692;28;20441;-65
2023/07/10 02:45:29;;;;;;;5.95;3.28;;;;;;;;;;5055992;28;20106;-65
2023/07/10 02:47:59;;;;;;;6.28;3.05;;;;;;;;;;5056406;28;20048;-65
2023/07/10 02:50:27;;;;;;;6.53;3.88;;;;;;;;;;5057352;28;21246;-65
2023/07/10 02:52:56;;;;;;;5.57;2.75;;;;;;;;;;5055215;28;20098;-65
2023/07/10 02:55:24;;;;;;;6.28;2.95;;;;;;;;;;5058187;28;20044;-65
2023/07/10 02:57:52;;;;;;;4.93;2.80;;;;;;;;;;5059399;28;20408;-65
2023/07/10 03:00:21;;;;;;;7.93;3.17;;;;;;;;;;5059123;28;20055;-65
2023/07/10 03:02:49;;;;;;;9.23;3.92;;;;;;;;;;5061419;28;20064;-65
2023/07/10 03:05:19;;;;;;;7.53;2.90;;;;;;;;;;5062216;28;20131;-64
2023/07/10 03:07:47;;;;;;;5.20;2.97;;;;;;;;;;5056069;28;20164;-65
2023/07/10 03:10:16;;;;;;;6.10;3.10;;;;;;;;;;5063164;28;20131;-65
2023/07/10 03:12:45;;;;;;;8.35;2.83;;;;;;;;;;5062764;28;20063;-65
2023/07/10 03:15:13;;;;;;;8.13;2.60;;;;;;;;;;5061566;28;20404;-65
2023/07/10 03:17:42;;;;;;;6.35;3.28;;;;;;;;;;5062691;28;20040;-65
2023/07/10 03:20:11;;;;;;;6.13;3.17;;;;;;;;;;5057768;28;20048;-65
2023/07/10 03:22:41;;;;;;;6.18;2.80;;;;;;;;;;5061316;28;20110;-65
2023/07/10 03:25:09;;;;;;;7.07;2.95;;;;;;;;;;5061428;28;20053;-65
2023/07/10 03:27:37;;;;;;;5.45;2.95;;;;;;;;;;5061393;28;20037;-65
2023/07/10 03:30:07;;;;;;;5.63;2.90;;;;;;;;;;5060243;28;20493;-65
2023/07/10 03:32:35;;;;;;;10.40;3.47;;;;;;;;;;5062662;28;20051;-65
2023/07/10 03:35:04;;;;;;;12.00;3.13;;;;;;;;;;5058194;28;20635;-65
2023/07/10 03:37:32;;;;;;;10.20;3.30;;;;;;;;;;5062488;28;20679;-65
2023/07/10 03:40:02;;;;;;;12.02;3.33;;;;;;;;;;5063080;28;20056;-65
2023/07/10 03:42:30;;;;;;;6.07;2.72;;;;;;;;;;5062099;28;20060;-65
2023/07/10 03:44:58;;;;;;;5.47;3.25;;;;;;;;;;5059155;28;20068;-65
2023/07/10 03:47:27;;;;;;;6.07;2.67;;;;;;;;;;5056629;28;20124;-65
2023/07/10 03:49:55;;;;;;;3.88;2.42;;;;;;;;;;5058227;28;20060;-65
2023/07/10 03:52:23;;;;;;;7.03;2.88;;;;;;;;;;5056790;28;20582;-65
2023/07/10 03:54:52;;;;;;;7.55;3.45;;;;;;;;;;5060311;28;20076;-65
2023/07/10 03:57:21;;;;;;;5.53;3.22;;;;;;;;;;5057807;28;20135;-65
2023/07/10 03:59:50;;;;;;;5.50;2.97;;;;;;;;;;5061661;28;20048;-65
2023/07/10 04:02:18;;;;;;;5.47;3.05;;;;;;;;;;5058477;28;20053;-65
2023/07/10 04:04:47;;;;;;;10.90;3.35;;;;;;;;;;5061089;28;20114;-65
2023/07/10 04:07:16;;;;;;;5.00;3.13;;;;;;;;;;5059294;28;20131;-65
2023/07/10 04:09:44;;;;;;;6.15;3.00;;;;;;;;;;5062029;28;20135;-65
2023/07/10 04:12:13;;;;;;;9.05;2.97;;;;;;;;;;5058801;28;20067;-65
2023/07/10 04:14:42;;;;;;;6.63;2.65;;;;;;;;;;5058410;28;20068;-65
2023/07/10 04:17:14;;;;;;;5.13;2.72;;;;;;;;;;5058496;28;20076;-65
2023/07/10 04:19:42;;;;;;;9.63;2.92;;;;;;;;;;5055192;28;20055;-65
2023/07/10 04:22:11;;;;;;;6.25;2.63;;;;;;;;;;5062633;28;20596;-65
2023/07/10 04:24:39;;;;;;;5.40;2.97;;;;;;;;;;5058599;28;20056;-65
2023/07/10 04:27:08;;;;;;;5.07;2.72;;;;;;;;;;5058960;28;21781;-65
2023/07/10 04:29:37;;;;;;;8.88;2.65;;;;;;;;;;5053747;28;20049;-65
2023/07/10 04:32:07;;;;;;;8.40;2.83;;;;;;;;;;5049274;28;20567;-65
2023/07/10 04:34:36;;;;;;;8.82;2.60;;;;;;;;;;5052003;28;20665;-65
2023/07/10 04:37:04;;;;;;;7.10;3.00;;;;;;;;;;5057752;28;20098;-65
2023/07/10 04:39:32;;;;;;;4.78;2.55;;;;;;;;;;5057246;28;20143;-64
2023/07/10 04:42:01;;;;;;;7.68;2.58;;;;;;;;;;5055262;28;20982;-65
2023/07/10 04:44:30;;;;;;;7.90;3.20;;;;;;;;;;5058817;28;20094;-65
2023/07/10 04:46:58;;;;;;;8.35;2.65;;;;;;;;;;5059208;28;20044;-65
2023/07/10 04:49:28;;;;;;;6.45;3.17;;;;;;;;;;5054496;28;20127;-65
2023/07/10 04:51:57;;;;;;;6.03;2.95;;;;;;;;;;5054771;28;20068;-65
2023/07/10 04:54:25;;;;;;;5.47;2.78;;;;;;;;;;5059333;28;20044;-66
2023/07/10 04:56:53;;;;;;;6.68;3.08;;;;;;;;;;5057912;28;20106;-65
2023/07/10 04:59:22;;;;;;;9.60;2.78;;;;;;;;;;5056281;28;20142;-65
2023/07/10 05:01:50;;;;;;;4.60;2.50;;;;;;;;;;5059835;28;20504;-65
2023/07/10 05:04:19;;;;;;;7.18;2.58;;;;;;;;;;5058778;28;20053;-65
2023/07/10 05:06:51;;;;;;;7.80;3.28;;;;;;;;;;5057121;28;20053;-66
2023/07/10 05:09:20;;;;;;;5.88;3.15;;;;;;;;;;5054042;28;20041;-66
2023/07/10 05:11:48;;;;;;;5.90;2.90;;;;;;;;;;5059492;28;20055;-65
2023/07/10 05:14:18;;;;;;;7.00;2.95;;;;;;;;;;5055958;28;20128;-65
2023/07/10 05:16:47;;;;;;;6.70;2.67;;;;;;;;;;5055936;28;20067;-65
2023/07/10 05:19:15;;;;;;;7.22;3.65;;;;;;;;;;5055047;28;20524;-66
2023/07/10 05:21:44;;;;;;;5.50;3.10;;;;;;;;;;5056123;28;20098;-65
2023/07/10 05:24:14;;;;;;;8.07;3.67;;;;;;;;;;5059882;28;20068;-65
2023/07/10 05:26:42;;;;;;;10.65;3.55;;;;;;;;;;5057220;28;20579;-63
2023/07/10 05:29:10;;;;;;;8.68;3.25;;;;;;;;;;5058675;28;21388;-65
2023/07/10 05:31:39;;;;;;;7.10;3.75;;;;;;;;;;5060216;28;20056;-65
2023/07/10 05:34:07;;;;;;;6.88;3.58;;;;;;;;;;5061844;28;20054;-65
2023/07/10 05:36:36;;;;;;;5.13;3.25;;;;;;;;;;5058555;28;20096;-64
2023/07/10 05:39:04;;;;;;;10.63;3.20;;;;;;;;;;5058330;28;20557;-65
2023/07/10 05:41:35;;;;;;;9.00;3.42;;;;;;;;;;5058499;28;20512;-65
2023/07/10 05:44:06;;;;;;;7.00;3.28;;;;;;;;;;5057850;28;20045;-66
2023/07/10 05:46:34;;;;;;;7.55;3.13;;;;;;;;;;5064420;28;20106;-66
2023/07/10 05:49:03;;;;;;;6.65;2.58;;;;;;;;;;5059616;28;20608;-64
2023/07/10 05:51:31;;;;;;;8.15;2.40;;;;;;;;;;5057534;28;20126;-65
2023/07/10 05:53:59;;;;;;;5.75;2.90;;;;;;;;;;5057332;28;20728;-65
2023/07/10 05:56:28;;;;;;;8.48;3.05;;;;;;;;;;5059780;28;20451;-65
2023/07/10 05:59:02;;;;;;;3.95;2.63;;;;;;;;;;5057974;28;20493;-64
2023/07/10 06:01:30;;;;;;;4.47;2.78;;;;;;;;;;5059995;28;20060;-65
2023/07/10 06:03:58;;;;;;;6.88;2.83;;;;;;;;;;5059832;28;20086;-65
2023/07/10 06:06:27;;;;;;;5.60;3.00;;;;;;;;;;5061534;28;20390;-65
2023/07/10 06:08:56;;;;;;;7.95;3.20;;;;;;;;;;5060478;28;20048;-65
2023/07/10 06:11:24;;;;;;;8.20;3.22;;;;;;;;;;5061502;28;20113;-65
2023/07/10 06:13:52;;;;;;;7.35;3.30;;;;;;;;;;5062378;28;20094;-65
2023/07/10 06:16:22;;;;;;;7.85;3.10;;;;;;;;;;5056696;28;20406;-66
2023/07/10 06:18:51;;;;;;;6.85;3.10;;;;;;;;;;5061414;28;20055;-65
2023/07/10 06:21:19;;;;;;;6.45;3.17;;;;;;;;;;5061840;28;20056;-65
2023/07/10 06:23:47;;;;;;;12.07;2.92;;;;;;;;;;5064098;28;20064;-65
2023/07/10 06:26:16;;;;;;;7.07;3.13;;;;;;;;;;5059089;28;20144;-65
2023/07/10 06:28:44;;;;;;;9.32;3.25;;;;;;;;;;5061964;28;20444;-65
2023/07/10 06:31:13;;;;;;;8.70;3.28;;;;;;;;;;5061029;28;20076;-66
2023/07/10 06:33:43;;;;;;;9.13;3.40;;;;;;;;;;5062498;28;20052;-66
2023/07/10 06:36:11;;;;;;;6.70;2.95;;;;;;;;;;5064602;28;20060;-65
2023/07/10 06:38:40;;;;;;;3.97;2.47;;;;;;;;;;5065209;28;21021;-65
2023/07/10 06:41:10;;;;;;;8.18;3.42;;;;;;;;;;5063896;28;20117;-66
2023/07/10 06:43:42;;;;;;;4.35;2.63;;;;;;;;;;5061729;28;20041;-65
2023/07/10 06:46:10;;;;;;;7.72;2.80;;;;;;;;;;5065260;28;20146;-65
2023/07/10 06:48:39;;;;;;;5.18;2.45;;;;;;;;;;5066384;28;20437;-64
2023/07/10 06:51:09;;;;;;;5.32;2.90;;;;;;;;;;5063922;28;20492;-65
2023/07/10 06:53:37;;;;;;;3.90;2.63;;;;;;;;;;5061081;28;20477;-66
2023/07/10 06:56:06;;;;;;;5.65;2.70;;;;;;;;;;5062495;28;20044;-65
2023/07/10 06:58:35;;;;;;;6.43;2.42;;;;;;;;;;5061399;28;20040;-66
2023/07/10 07:01:04;;;;;;;6.38;2.55;;;;;;;;;;5066177;28;20106;-65
2023/07/10 07:03:33;;;;;;;7.25;2.65;;;;;;;;;;5065799;28;20098;-65
2023/07/10 07:06:01;;;;;;;4.20;2.65;;;;;;;;;;5061955;28;20076;-67
2023/07/10 07:08:31;;;;;;;8.93;2.72;;;;;;;;;;5063115;28;20072;-66
2023/07/10 07:11:00;;;;;;;5.50;2.53;;;;;;;;;;5064121;28;20052;-65
2023/07/10 07:13:28;;;;;;;4.65;2.63;;;;;;;;;;5065178;28;20048;-65
2023/07/10 07:15:57;;;;;;;7.07;3.00;;;;;;;;;;5064564;28;20052;-64
2023/07/10 07:18:26;;;;;;;6.28;2.55;;;;;;;;;;5062754;28;20481;-64
2023/07/10 07:20:57;;;;;;;6.88;3.05;;;;;;;;;;5064832;28;20126;-64
2023/07/10 07:23:25;;;;;;;4.43;2.38;;;;;;;;;;5062813;28;20048;-66
2023/07/10 07:25:56;;;;;;;3.85;2.15;;;;;;;;;;5064708;28;20649;-64
2023/07/10 07:28:24;;;;;;;4.38;2.80;;;;;;;;;;5061963;28;20055;-64
2023/07/10 07:30:52;;;;;;;5.10;2.72;;;;;;;;;;5063826;28;20106;-66
2023/07/10 07:33:21;;;;;;;4.95;2.63;;;;;;;;;;5067948;28;20055;-64
2023/07/10 07:35:50;;;;;;;10.27;2.60;;;;;;;;;;5063152;28;20090;-64
2023/07/10 07:38:18;;;;;;;7.63;2.60;;;;;;;;;;5061294;28;20165;-65
2023/07/10 07:40:47;;;;;;;8.23;2.75;;;;;;;;;;5063623;28;20056;-64
2023/07/10 07:43:16;;;;;;;6.72;2.78;;;;;;;;;;5064060;28;20123;-64
2023/07/10 07:45:51;;;;;;;6.35;3.03;;;;;;;;;;5060837;28;20048;-67
2023/07/10 07:48:19;;;;;;;5.35;2.90;;;;;;;;;;5064496;28;20135;-64
2023/07/10 07:50:58;;;;;;;4.97;3.05;;;;;;;;;;5063532;28;20044;-63
2023/07/10 07:53:27;;;;;;;6.80;3.97;;;;;;;;;;5063510;28;20161;-67
2023/07/10 07:55:55;;;;;;;6.88;3.38;;;;;;;;;;5061902;28;20051;-64
2023/07/10 07:58:25;;;;;;;8.52;3.05;;;;;;;;;;5057186;28;20130;-68
2023/07/10 08:00:54;;;;;;;7.32;3.30;;;;;;;;;;5062055;28;20390;-64
2023/07/10 08:03:22;;;;;;;6.50;3.20;;;;;;;;;;5061263;28;20056;-64
2023/07/10 08:05:51;;;;;;;5.90;2.90;;;;;;;;;;5062795;28;20436;-66
2023/07/10 08:08:19;;;;;;;9.25;3.35;;;;;;;;;;5060255;28;20049;-64
2023/07/10 08:10:49;;;;;;;7.70;3.47;;;;;;;;;;5061718;28;20063;-68
2023/07/10 08:13:18;;;;;;;7.63;3.38;;;;;;;;;;5060523;28;20140;-64
2023/07/10 08:15:47;;;;;;;6.68;3.17;;;;;;;;;;5060375;28;20144;-65
2023/07/10 08:18:16;;;;;;;5.55;3.00;;;;;;;;;;5065827;28;20047;-63
2023/07/10 08:20:44;;;;;;;8.43;3.65;;;;;;;;;;5061334;28;20110;-62
2023/07/10 08:23:13;;;;;;;8.20;3.08;;;;;;;;;;5061322;28;20698;-66
2023/07/10 08:25:41;;;;;;;7.80;3.95;;;;;;;;;;5062905;28;20595;-66
2023/07/10 08:28:10;;;;;;;7.25;3.08;;;;;;;;;;5064749;28;20133;-63
2023/07/10 08:30:38;;;;;;;5.45;3.00;;;;;;;;;;5062933;28;20134;-64
2023/07/10 08:33:10;;;;;;;9.55;3.30;;;;;;;;;;5064628;28;20128;-65
2023/07/10 08:35:39;;;;;;;6.68;3.35;;;;;;;;;;5061957;28;20113;-64
2023/07/10 08:38:07;;;;;;;6.35;3.15;;;;;;;;;;5060675;28;20036;-66
2023/07/10 08:40:37;;;;;;;4.85;3.10;;;;;;;;;;5064011;28;20113;-63
2023/07/10 08:43:15;;;;;;;6.15;3.13;;;;;;;;;;5064281;28;20954;-62
2023/07/10 08:45:44;;;;;;;6.80;2.90;;;;;;;;;;5063354;28;20118;-64
2023/07/10 08:48:23;;;;;;;10.93;3.00;;;;;;;;;;5063285;28;20083;-65
2023/07/10 08:50:52;;;;;;;8.60;3.08;;;;;;;;;;5061945;28;20076;-66
2023/07/10 08:53:23;;;;;;;7.63;3.35;;;;;;;;;;5063468;28;20127;-64
2023/07/10 08:55:56;;;;;;;5.68;3.20;;;;;;;;;;5061788;28;20106;-62
2023/07/10 08:58:26;;;;;;;4.60;2.85;;;;;;;;;;5062144;28;20079;-65
2023/07/10 09:00:58;;;;;;;6.70;2.97;;;;;;;;;;5061175;28;20497;-64
2023/07/10 09:03:36;;;;;;;8.65;3.15;;;;;;;;;;5064354;28;20045;-64
2023/07/10 09:06:08;;;;;;;5.88;3.25;;;;;;;;;;5062410;28;20646;-65
2023/07/10 09:08:36;;;;;;;6.28;3.05;;;;;;;;;;5063132;28;20044;-64
2023/07/10 09:11:08;;;;;;;5.00;2.50;;;;;;;;;;5063674;28;20048;-63
2023/07/10 09:13:39;;;;;;;9.90;3.03;;;;;;;;;;5064103;28;20135;-64
2023/07/10 09:16:12;;;;;;;6.65;2.50;;;;;;;;;;5063816;28;20064;-64
2023/07/10 09:18:48;;;;;;;4.80;2.03;;;;;;;;;;5060793;28;20063;-65
2023/07/10 09:21:17;;;;;;;3.60;2.42;;;;;;;;;;5062280;28;20068;-64
2023/07/10 09:23:46;;;;;;;5.25;2.25;;;;;;;;;;5062686;28;20117;-64
2023/07/10 09:26:16;;;;;;;5.03;2.28;;;;;;;;;;5060885;28;20101;-65
2023/07/10 09:28:46;;;;;;;7.28;2.38;;;;;;;;;;5063456;28;20057;-64
2023/07/10 09:31:20;;;;;;;6.63;2.63;;;;;;;;;;5060274;28;21217;-64
2023/07/10 09:33:54;;;;;;;9.10;2.58;;;;;;;;;;5062423;28;20040;-64
2023/07/10 09:36:23;;;;;;;4.13;2.20;;;;;;;;;;5064299;28;20087;-64
2023/07/10 09:38:53;;;;;;;7.07;2.67;;;;;;;;;;5060259;28;20072;-64
2023/07/10 09:41:22;;;;;;;8.13;3.28;;;;;;;;;;5064107;28;20093;-64
2023/07/10 09:43:51;;;;;;;6.35;2.30;;;;;;;;;;5062464;28;20439;-63
2023/07/10 09:46:23;;;;;;;6.93;3.13;;;;;;;;;;5061932;28;20155;-64
2023/07/10 09:48:55;;;;;;;6.57;2.83;;;;;;;;;;5060021;28;20800;-64
2023/07/10 09:51:24;;;;;;;5.15;2.75;;;;;;;;;;5063414;28;20049;-64
2023/07/10 09:53:53;;;;;;;3.90;2.15;;;;;;;;;;5060263;28;20095;-64
2023/07/10 09:56:24;;;;;;;9.30;3.28;;;;;;;;;;5063146;28;20056;-64
2023/07/10 09:58:54;;;;;;;13.63;3.17;;;;;;;;;;5060358;28;20048;-64
2023/07/10 10:01:25;;;;;;;7.80;2.75;;;;;;;;;;5061467;28;20586;-65
2023/07/10 10:03:55;;;;;;;11.13;3.45;;;;;;;;;;5062146;28;20517;-64
2023/07/10 10:06:25;;;;;;;7.35;3.05;;;;;;;;;;5061194;28;20040;-64
2023/07/10 10:08:54;;;;;;;9.30;3.13;;;;;;;;;;5061704;28;20147;-64
2023/07/10 10:11:30;;;;;;;8.68;3.38;;;;;;;;;;5066810;28;20500;-65
2023/07/10 10:14:01;;;;;;;6.72;2.97;;;;;;;;;;5066681;28;20094;-64
2023/07/10 10:16:33;;;;;;;13.75;2.80;;;;;;;;;;5066504;28;20044;-64
2023/07/10 10:19:06;;;;;;;7.38;3.20;;;;;;;;;;5067706;28;20051;-64
2023/07/10 10:21:36;;;;;;;6.55;3.30;;;;;;;;;;5067148;28;20049;-65
2023/07/10 10:24:07;;;;;;;14.68;2.85;;;;;;;;;;5066021;28;20056;-64
2023/07/10 10:26:39;;;;;;;6.00;3.08;;;;;;;;;;5064830;28;20102;-64
2023/07/10 10:29:37;;;;;;;6.75;3.38;;;;;;;;;;5060382;28;20508;-65
2023/07/10 10:32:08;;;;;;;8.23;3.60;;;;;;;;;;4983327;28;20050;-64
2023/07/10 10:34:43;;;;;;;7.53;2.75;;;;;;;;;;5047483;28;20756;-65
2023/07/10 10:37:21;;;;;;;8.68;2.67;;;;;;;;;;5065863;28;20067;-64
2023/07/10 10:39:55;;;;;;;6.85;3.00;;;;;;;;;;5064202;28;20052;-65
2023/07/10 10:42:27;;;;;;;6.05;2.88;;;;;;;;;;5066562;28;20328;-64
2023/07/10 10:44:58;;;;;;;6.60;2.55;;;;;;;;;;5064982;28;20048;-64
2023/07/10 10:47:32;;;;;;;6.25;2.65;;;;;;;;;;5061357;28;20132;-65
2023/07/10 10:50:08;;;;;;;7.82;2.58;;;;;;;;;;5064799;28;20052;-64
2023/07/10 10:52:44;;;;;;;7.47;2.53;;;;;;;;;;5062107;28;20657;-65
2023/07/10 10:55:21;;;;;;;9.55;2.88;;;;;;;;;;5064018;28;20493;-64
2023/07/10 10:57:52;;;;;;;4.78;3.00;;;;;;;;;;5063441;28;20052;-64
2023/07/10 11:00:29;;;;;;;4.38;2.70;;;;;;;;;;5064765;28;20080;-64
2023/07/10 11:03:05;;;;;;;6.00;2.92;;;;;;;;;;5066437;28;20138;-64
2023/07/10 11:05:37;;;;;;;9.57;2.83;;;;;;;;;;5063105;28;20515;-63
2023/07/10 11:08:10;;;;;;;7.40;3.05;;;;;;;;;;5064048;28;20451;-63
2023/07/10 11:10:40;;;;;;;6.15;2.40;;;;;;;;;;5064835;28;20040;-64
2023/07/10 11:13:13;;;;;;;6.40;2.72;;;;;;;;;;5065179;28;20045;-64
2023/07/10 11:15:41;;;;;;;7.03;3.20;;;;;;;;;;5044015;28;20052;-64
2023/07/10 11:18:11;;;;;;;6.70;3.30;;;;;;;;;;5066319;28;20037;-63
2023/07/10 11:20:40;;;;;;;7.68;3.55;;;;;;;;;;5062677;28;20086;-63
2023/07/10 11:23:28;;;;;;;4.57;2.92;;;;;;;;;;5065153;28;20098;-64
2023/07/10 11:26:01;;;;;;;9.05;3.50;;;;;;;;;;5064118;28;20049;-63
2023/07/10 11:28:32;;;;;;;7.65;3.15;;;;;;;;;;5065687;28;20048;-64
2023/07/10 11:31:21;;;;;;;10.82;3.25;;;;;;;;;;5063881;28;20055;-65
2023/07/10 11:33:53;;;;;;;5.25;3.33;;;;;;;;;;5062885;28;20135;-63
2023/07/10 11:39:31;;;;;;;4.78;2.90;;;;;;;;;;5102888;27;20482;-66
2023/07/10 11:42:07;;;;;;;4.80;2.92;;;;;;;;;;5080643;28;20044;-65
2023/07/10 11:44:40;;;;;;;6.32;3.10;;;;;;;;;;5075597;27;20140;-70
2023/07/10 11:47:20;;;;;;;8.50;2.80;;;;;;;;;;5040672;28;20053;-66
2023/07/10 11:50:03;;;;;;;8.02;2.92;;;;;;;;;;5039588;28;20061;-65
2023/07/10 11:52:32;;;;;;;4.13;2.75;;;;;;;;;;5042254;28;20048;-66
2023/07/10 11:55:07;;;;;;;8.45;3.20;;;;;;;;;;5035478;28;20053;-65
2023/07/10 11:57:36;;;;;;;4.63;3.03;;;;;;;;;;5041855;28;20095;-66
2023/07/10 12:00:06;;;;;;;5.80;3.10;;;;;;;;;;5041833;28;20076;-68
2023/07/10 12:02:38;;;;;;;6.90;3.10;;;;;;;;;;5044512;28;20041;-65
2023/07/10 12:05:15;;;;;;;4.18;2.47;;;;;;;;;;5041202;28;20060;-64
2023/07/10 12:07:51;;;;;;;9.45;2.78;;;;;;;;;;5038654;28;22016;-64
2023/07/10 12:10:21;;;;;;;5.78;2.85;;;;;;;;;;5036666;28;20490;-64
2023/07/10 12:12:49;;;;;;;7.65;3.10;;;;;;;;;;5037147;28;21174;-63
2023/07/10 12:15:18;;;;;;;6.43;2.70;;;;;;;;;;5035123;28;20564;-63
2023/07/10 12:17:48;;;;;;;4.50;2.67;;;;;;;;;;5036773;28;20045;-63
2023/07/10 12:20:24;;;;;;;4.95;2.60;;;;;;;;;;5038063;28;20037;-63
2023/07/10 12:22:53;;;;;;;5.78;2.45;;;;;;;;;;5032536;28;20559;-64
2023/07/10 12:25:23;;;;;;;4.45;2.40;;;;;;;;;;5035037;28;20100;-63
2023/07/10 12:27:52;;;;;;;9.70;2.70;;;;;;;;;;5040230;28;20465;-64
2023/07/10 12:30:25;;;;;;;5.85;2.80;;;;;;;;;;5036820;28;20061;-64
2023/07/10 12:32:55;;;;;;;4.40;2.45;;;;;;;;;;5035956;28;20041;-63
2023/07/10 12:35:29;;;;;;;5.07;2.60;;;;;;;;;;5034181;28;20471;-63
2023/07/10 12:37:59;;;;;;;3.40;2.25;;;;;;;;;;5035849;28;20510;-64
2023/07/10 12:40:30;;;;;;;3.63;2.17;;;;;;;;;;5037302;28;20258;-63
2023/07/10 12:43:09;;;;;;;4.68;2.60;;;;;;;;;;5035529;28;20103;-66
2023/07/10 12:45:39;;;;;;;4.47;2.22;;;;;;;;;;5036752;28;20037;-69
2023/07/10 12:48:11;;;;;;;5.15;2.72;;;;;;;;;;5037699;28;20132;-64
2023/07/10 12:50:44;;;;;;;2.75;2.00;;;;;;;;;;5019036;28;20042;-64
2023/07/10 12:53:18;;;;;;;4.00;2.42;;;;;;;;;;5025536;28;21286;-64
2023/07/10 12:55:48;;;;;;;2.90;2.07;;;;;;;;;;5019835;28;20053;-65
2023/07/10 12:58:34;;;;;;;3.42;2.55;;;;;;;;;;5021695;28;20041;-66
2023/07/10 13:01:03;;;;;;;3.33;2.25;;;;;;;;;;5021671;28;20065;-64
2023/07/10 13:03:33;;;;;;;4.53;2.67;;;;;;;;;;5024524;28;20483;-65
2023/07/10 13:06:06;;;;;;;4.95;2.17;;;;;;;;;;5021823;28;20056;-68
2023/07/10 13:08:37;;;;;;;3.03;1.90;;;;;;;;;;5020089;28;20136;-64
2023/07/10 13:11:07;;;;;;;4.05;2.50;;;;;;;;;;5017862;28;20053;-66
2023/07/10 13:13:36;;;;;;;3.92;2.28;;;;;;;;;;5021495;28;20144;-65
2023/07/10 13:16:05;;;;;;;2.95;2.30;;;;;;;;;;5021257;28;20049;-65
2023/07/10 13:18:37;;;;;;;4.78;2.38;;;;;;;;;;5024119;28;20085;-63
2023/07/10 13:21:06;;;;;;;3.72;2.50;;;;;;;;;;5018704;28;20055;-64
2023/07/10 13:23:35;;;;;;;6.55;2.40;;;;;;;;;;5023790;28;20037;-64
2023/07/10 13:26:08;;;;;;;4.18;2.40;;;;;;;;;;5018334;28;20188;-64
2023/07/10 13:28:37;;;;;;;3.80;2.33;;;;;;;;;;5023910;28;20164;-64
2023/07/10 13:31:18;;;;;;;2.83;2.10;;;;;;;;;;5022847;28;20063;-65
2023/07/10 13:33:46;;;;;;;4.75;2.30;;;;;;;;;;5023473;28;20060;-65
2023/07/10 13:36:16;;;;;;;3.58;1.88;;;;;;;;;;5024302;28;20049;-64
2023/07/10 13:38:45;;;;;;;4.38;2.55;;;;;;;;;;5021602;28;20523;-65
2023/07/10 13:41:18;;;;;;;6.07;2.38;;;;;;;;;;5020141;28;20069;-69
2023/07/10 13:43:47;;;;;;;3.55;2.15;;;;;;;;;;5017938;28;20042;-63
2023/07/10 13:46:22;;;;;;;4.55;1.80;;;;;;;;;;5023579;28;20049;-65
2023/07/10 13:48:51;;;;;;;5.38;2.55;;;;;;;;;;5020387;28;20049;-68
2023/07/10 13:51:21;;;;;;;3.25;1.95;;;;;;;;;;5024529;28;20051;-64
2023/07/10 13:53:49;;;;;;;2.42;1.95;;;;;;;;;;5023006;28;21042;-62
2023/07/10 13:56:20;;;;;;;3.15;2.30;;;;;;;;;;5021428;28;20422;-61
2023/07/10 13:58:49;;;;;;;3.33;2.20;;;;;;;;;;5022552;28;20103;-66
2023/07/10 14:01:17;;;;;;;7.95;2.38;;;;;;;;;;5015753;28;20104;-60
2023/07/10 14:03:46;;;;;;;29.75;10.98;;;;;;;;;;5020458;28;20053;-62
2023/07/10 14:06:30;;;;;;;7.05;3.42;;;;;;;;;;5020847;28;20060;-64
2023/07/10 14:08:59;;;;;;;5.15;2.50;;;;;;;;;;5018660;28;21913;-67
2023/07/10 14:11:32;;;;;;;4.07;1.92;;;;;;;;;;5020910;28;20049;-62
2023/07/10 14:14:01;;;;;;;6.05;2.33;;;;;;;;;;5021389;28;20049;-64
2023/07/10 14:16:32;;;;;;;8.68;2.30;;;;;;;;;;5021243;28;20080;-61
2023/07/10 14:19:00;;;;;;;3.45;2.08;;;;;;;;;;5021648;28;20077;-68
2023/07/10 14:21:28;;;;;;;3.83;2.08;;;;;;;;;;5021487;28;20498;-62
2023/07/10 14:23:57;;;;;;;4.72;2.58;;;;;;;;;;5023504;28;20411;-63
2023/07/10 14:26:27;;;;;;;3.13;2.20;;;;;;;;;;5020393;28;20120;-60
2023/07/10 14:28:58;;;;;;;3.38;1.92;;;;;;;;;;5021315;28;20105;-61
2023/07/10 14:31:27;;;;;;;4.75;2.55;;;;;;;;;;5023122;28;20395;-64
2023/07/10 14:33:56;;;;;;;4.10;2.33;;;;;;;;;;5019551;28;20045;-67
2023/07/10 14:36:26;;;;;;;2.83;2.20;;;;;;;;;;5021752;28;20053;-68
2023/07/10 14:38:54;;;;;;;4.78;2.33;;;;;;;;;;5018072;28;20143;-63
2023/07/10 14:41:24;;;;;;;3.83;2.13;;;;;;;;;;5020747;28;20042;-61
2023/07/10 14:43:53;;;;;;;4.93;2.20;;;;;;;;;;5017211;28;20051;-65
2023/07/10 14:46:26;;;;;;;5.10;2.25;;;;;;;;;;5016946;28;20045;-62
2023/07/10 14:48:55;;;;;;;3.53;2.40;;;;;;;;;;5013914;28;20052;-62
2023/07/10 14:51:23;;;;;;;5.70;2.90;;;;;;;;;;5014685;28;20065;-64
2023/07/10 14:53:52;;;;;;;5.30;2.75;;;;;;;;;;5017086;28;20481;-62
2023/07/10 14:56:20;;;;;;;3.83;2.70;;;;;;;;;;5019723;28;20049;-61
2023/07/10 14:58:49;;;;;;;4.45;2.20;;;;;;;;;;5020746;28;20073;-63
2023/07/10 15:01:18;;;;;;;3.72;2.67;;;;;;;;;;5017861;28;20331;-63
2023/07/10 15:03:48;;;;;;;4.28;2.03;;;;;;;;;;5017963;28;20046;-62